Time;durP1;ratioP1;P1;durP2;ratioP2;P2;SDS_P1;SDS_P2;PMS_P1;PMS_P2;Temp;Humidity;BMP_temperature;BMP_pressure;BME280_temperature;BME280_humidity;BME280_pressure;Samples;Min_cycle;Max_cycle;Signal;HPM_P1;HPM_P2
2023/08/28 00:01:26;;;;;;;19.13;17.33;;;;;;;;;;5067677;28;20499;-63
2023/08/28 00:03:51;;;;;;;20.55;17.35;;;;;;;;;;5053646;28;20077;-63
2023/08/28 00:06:17;;;;;;;19.83;17.00;;;;;;;;;;5052103;28;20029;-63
2023/08/28 00:08:42;;;;;;;21.10;18.88;;;;;;;;;;5053532;28;20375;-63
2023/08/28 00:11:07;;;;;;;21.73;18.53;;;;;;;;;;5058290;28;20032;-63
2023/08/28 00:13:32;;;;;;;23.02;18.35;;;;;;;;;;5072872;28;20056;-62
2023/08/28 00:15:58;;;;;;;19.93;17.83;;;;;;;;;;5072198;28;20036;-62
2023/08/28 00:18:23;;;;;;;25.73;19.27;;;;;;;;;;5073079;28;20044;-62
2023/08/28 00:20:48;;;;;;;18.63;16.93;;;;;;;;;;5071200;28;20075;-60
2023/08/28 00:23:13;;;;;;;21.90;16.53;;;;;;;;;;5073389;28;20560;-61
2023/08/28 00:25:38;;;;;;;19.98;17.88;;;;;;;;;;5069459;28;20467;-60
2023/08/28 00:28:03;;;;;;;22.70;19.65;;;;;;;;;;5053026;28;20075;-61
2023/08/28 00:30:29;;;;;;;22.13;19.83;;;;;;;;;;5051339;28;20028;-60
2023/08/28 00:32:54;;;;;;;24.67;20.67;;;;;;;;;;5053124;28;20044;-61
2023/08/28 00:35:19;;;;;;;23.33;19.40;;;;;;;;;;5052345;28;20449;-61
2023/08/28 00:37:45;;;;;;;23.90;21.50;;;;;;;;;;5069331;28;20053;-60
2023/08/28 00:40:13;;;;;;;23.00;20.02;;;;;;;;;;5072813;28;20438;-61
2023/08/28 00:42:38;;;;;;;23.92;19.63;;;;;;;;;;5070939;28;20140;-62
2023/08/28 00:45:04;;;;;;;22.30;20.03;;;;;;;;;;5072835;28;20099;-62
2023/08/28 00:47:29;;;;;;;25.55;21.65;;;;;;;;;;5071163;28;20044;-62
2023/08/28 00:49:54;;;;;;;24.63;21.13;;;;;;;;;;5056311;28;20013;-61
2023/08/28 00:52:19;;;;;;;29.30;20.15;;;;;;;;;;5050875;28;20451;-63
2023/08/28 00:54:45;;;;;;;30.27;20.70;;;;;;;;;;5063224;28;20113;-60
2023/08/28 00:57:12;;;;;;;27.40;21.20;;;;;;;;;;5070896;28;20047;-60
2023/08/28 00:59:37;;;;;;;21.30;18.60;;;;;;;;;;5052500;28;20197;-60
2023/08/28 01:02:06;;;;;;;24.08;20.58;;;;;;;;;;5061587;28;20053;-60
2023/08/28 01:04:31;;;;;;;26.13;21.00;;;;;;;;;;5048523;28;20025;-61
2023/08/28 01:07:01;;;;;;;24.10;21.67;;;;;;;;;;5062702;28;20488;-61
2023/08/28 01:09:38;;;;;;;31.83;19.25;;;;;;;;;;5072221;28;20099;-61
2023/08/28 01:12:13;;;;;;;26.77;21.70;;;;;;;;;;5071323;28;20406;-60
2023/08/28 01:14:51;;;;;;;24.83;17.80;;;;;;;;;;5072630;28;20062;-64
2023/08/28 01:17:16;;;;;;;20.85;18.75;;;;;;;;;;5068842;28;20594;-63
2023/08/28 01:19:42;;;;;;;24.05;19.88;;;;;;;;;;5071548;28;20112;-63
2023/08/28 01:22:07;;;;;;;21.98;19.25;;;;;;;;;;5062044;28;20044;-63
2023/08/28 01:24:33;;;;;;;20.97;18.77;;;;;;;;;;5051952;28;20514;-63
2023/08/28 01:26:58;;;;;;;22.33;19.95;;;;;;;;;;5050443;28;20041;-63
2023/08/28 01:29:23;;;;;;;20.52;17.15;;;;;;;;;;5051827;28;20017;-63
2023/08/28 01:31:48;;;;;;;20.13;17.07;;;;;;;;;;5050716;28;20428;-63
2023/08/28 01:34:13;;;;;;;20.40;17.50;;;;;;;;;;5059882;28;21056;-63
2023/08/28 01:36:49;;;;;;;19.95;17.52;;;;;;;;;;5070082;28;20032;-63
2023/08/28 01:39:17;;;;;;;20.17;17.88;;;;;;;;;;5071887;28;20044;-65
2023/08/28 01:41:44;;;;;;;21.05;16.75;;;;;;;;;;5058259;28;20133;-65
2023/08/28 01:44:10;;;;;;;19.13;17.00;;;;;;;;;;5051719;28;20024;-64
2023/08/28 01:46:35;;;;;;;22.67;17.27;;;;;;;;;;5057864;28;20032;-65
2023/08/28 01:49:00;;;;;;;22.30;17.60;;;;;;;;;;5051787;28;20035;-65
2023/08/28 01:51:26;;;;;;;29.25;19.40;;;;;;;;;;5039081;28;20126;-65
2023/08/28 01:53:52;;;;;;;21.80;17.50;;;;;;;;;;5051793;28;20108;-65
2023/08/28 01:56:24;;;;;;;21.98;17.63;;;;;;;;;;5059358;28;20419;-64
2023/08/28 01:58:54;;;;;;;26.02;19.75;;;;;;;;;;5071480;28;20103;-66
2023/08/28 02:01:19;;;;;;;19.77;16.83;;;;;;;;;;5069472;28;20033;-67
2023/08/28 02:03:44;;;;;;;25.05;16.92;;;;;;;;;;5071191;28;20048;-65
2023/08/28 02:06:09;;;;;;;22.03;18.20;;;;;;;;;;5069427;28;20025;-65
2023/08/28 02:08:35;;;;;;;22.38;18.80;;;;;;;;;;5069705;28;20449;-65
2023/08/28 02:11:00;;;;;;;21.50;19.30;;;;;;;;;;5070081;28;20032;-64
2023/08/28 02:13:25;;;;;;;30.40;21.80;;;;;;;;;;5070395;28;20530;-66
2023/08/28 02:15:51;;;;;;;28.30;20.48;;;;;;;;;;5055865;28;20059;-62
2023/08/28 02:18:16;;;;;;;22.65;18.48;;;;;;;;;;5060276;28;20031;-63
2023/08/28 02:20:41;;;;;;;23.40;20.03;;;;;;;;;;5069122;28;20024;-62
2023/08/28 02:23:07;;;;;;;24.08;20.33;;;;;;;;;;5060667;28;20364;-62
2023/08/28 02:25:32;;;;;;;26.70;19.83;;;;;;;;;;5049559;28;20028;-63
2023/08/28 02:27:57;;;;;;;24.92;20.17;;;;;;;;;;5050876;28;20025;-63
2023/08/28 02:30:23;;;;;;;24.98;20.17;;;;;;;;;;5049399;28;20020;-63
2023/08/28 02:32:48;;;;;;;27.90;22.77;;;;;;;;;;5049687;28;20055;-63
2023/08/28 02:35:13;;;;;;;27.83;23.08;;;;;;;;;;5067277;28;20024;-62
2023/08/28 02:37:38;;;;;;;23.15;19.70;;;;;;;;;;5068897;28;20530;-62
2023/08/28 02:40:04;;;;;;;26.38;20.63;;;;;;;;;;5070416;28;20031;-62
2023/08/28 02:42:29;;;;;;;25.92;22.40;;;;;;;;;;5048907;28;20040;-62
2023/08/28 02:44:55;;;;;;;27.17;21.27;;;;;;;;;;5049228;28;20025;-62
2023/08/28 02:47:20;;;;;;;17.63;14.43;;;;;;;;;;5065088;28;20029;-63
2023/08/28 02:49:45;;;;;;;20.60;17.03;;;;;;;;;;5054782;28;20450;-62
2023/08/28 02:52:10;;;;;;;20.83;17.70;;;;;;;;;;5049210;28;20052;-63
2023/08/28 02:54:35;;;;;;;33.88;23.38;;;;;;;;;;5055371;28;20447;-62
2023/08/28 02:57:00;;;;;;;28.88;19.30;;;;;;;;;;5068838;28;20033;-62
2023/08/28 02:59:27;;;;;;;27.58;21.83;;;;;;;;;;5070189;28;20100;-62
2023/08/28 03:01:52;;;;;;;29.58;23.95;;;;;;;;;;5069279;28;20033;-62
2023/08/28 03:04:17;;;;;;;32.92;24.40;;;;;;;;;;5060828;28;20585;-62
2023/08/28 03:06:42;;;;;;;27.75;22.23;;;;;;;;;;5048701;28;20048;-62
2023/08/28 03:09:07;;;;;;;29.25;24.75;;;;;;;;;;5050243;28;20021;-62
2023/08/28 03:11:36;;;;;;;35.58;25.27;;;;;;;;;;5057021;28;20543;-62
2023/08/28 03:14:01;;;;;;;31.27;24.00;;;;;;;;;;5069953;28;20036;-63
2023/08/28 03:16:26;;;;;;;30.80;24.00;;;;;;;;;;5068340;28;20032;-64
2023/08/28 03:18:52;;;;;;;41.90;27.77;;;;;;;;;;5069813;28;20073;-64
2023/08/28 03:21:17;;;;;;;32.97;25.63;;;;;;;;;;5068907;28;20489;-63
2023/08/28 03:23:42;;;;;;;34.22;25.98;;;;;;;;;;5069844;28;20020;-64
2023/08/28 03:26:07;;;;;;;36.45;27.20;;;;;;;;;;5068462;28;20048;-64
2023/08/28 03:28:33;;;;;;;35.77;26.80;;;;;;;;;;5069964;28;20487;-65
2023/08/28 03:30:58;;;;;;;30.97;25.10;;;;;;;;;;5068426;28;20451;-64
2023/08/28 03:33:24;;;;;;;36.08;25.35;;;;;;;;;;5069898;28;20203;-63
2023/08/28 03:35:49;;;;;;;34.65;23.70;;;;;;;;;;5072938;28;20043;-64
2023/08/28 03:38:14;;;;;;;27.17;23.95;;;;;;;;;;5073775;28;20045;-63
2023/08/28 03:40:39;;;;;;;34.20;26.27;;;;;;;;;;5072000;28;20050;-63
2023/08/28 03:43:05;;;;;;;57.17;27.30;;;;;;;;;;5054921;28;20470;-63
2023/08/28 03:45:30;;;;;;;70.80;26.27;;;;;;;;;;5052261;28;20790;-63
2023/08/28 03:47:56;;;;;;;37.92;27.42;;;;;;;;;;5053533;28;20491;-62
2023/08/28 03:50:21;;;;;;;36.33;27.77;;;;;;;;;;5052443;28;20029;-60
2023/08/28 03:52:46;;;;;;;174.17;31.43;;;;;;;;;;5073219;28;20472;-61
2023/08/28 03:55:11;;;;;;;263.23;37.90;;;;;;;;;;5073532;28;20943;-63
2023/08/28 03:57:37;;;;;;;268.67;37.50;;;;;;;;;;5069957;28;20039;-63
2023/08/28 04:00:05;;;;;;;69.00;24.07;;;;;;;;;;5073585;28;20112;-62
2023/08/28 04:02:30;;;;;;;;;;;;;;;;;;5072110;28;20494;-62
2023/08/28 04:04:56;;;;;;;38.85;27.10;;;;;;;;;;5073276;28;20389;-63
2023/08/28 04:07:22;;;;;;;46.75;29.77;;;;;;;;;;5071700;28;20025;-62
2023/08/28 04:09:47;;;;;;;40.35;26.52;;;;;;;;;;5073400;28;20029;-62
2023/08/28 04:12:12;;;;;;;41.70;29.93;;;;;;;;;;5071659;28;20033;-63
2023/08/28 04:14:37;;;;;;;38.08;25.90;;;;;;;;;;5052553;28;20063;-62
2023/08/28 04:17:02;;;;;;;35.30;28.40;;;;;;;;;;5052088;28;20044;-62
2023/08/28 04:19:28;;;;;;;36.25;24.55;;;;;;;;;;5052453;28;20096;-64
2023/08/28 04:21:53;;;;;;;42.40;30.33;;;;;;;;;;5068288;28;20032;-63
2023/08/28 04:24:18;;;;;;;44.67;31.13;;;;;;;;;;5065288;28;20009;-63
2023/08/28 04:26:43;;;;;;;41.17;31.03;;;;;;;;;;5050734;28;20051;-62
2023/08/28 04:29:08;;;;;;;43.40;30.33;;;;;;;;;;5053420;28;20104;-62
2023/08/28 04:31:33;;;;;;;39.93;29.40;;;;;;;;;;5051624;28;20029;-62
2023/08/28 04:33:59;;;;;;;67.57;31.63;;;;;;;;;;5053617;28;20444;-62
2023/08/28 04:36:24;;;;;;;42.13;30.13;;;;;;;;;;5051942;28;20126;-62
2023/08/28 04:38:49;;;;;;;42.13;31.08;;;;;;;;;;5052885;28;20474;-62
2023/08/28 04:41:14;;;;;;;36.50;29.33;;;;;;;;;;5051419;28;20029;-62
2023/08/28 04:43:39;;;;;;;39.38;30.23;;;;;;;;;;5052603;28;20546;-63
2023/08/28 04:46:04;;;;;;;35.53;27.23;;;;;;;;;;5051384;28;20029;-63
2023/08/28 04:48:30;;;;;;;39.70;30.52;;;;;;;;;;5052511;28;20057;-63
2023/08/28 04:50:55;;;;;;;40.83;29.30;;;;;;;;;;5051779;28;20139;-63
2023/08/28 04:53:20;;;;;;;39.58;29.95;;;;;;;;;;5052708;28;20492;-61
2023/08/28 04:55:46;;;;;;;35.92;28.90;;;;;;;;;;5050793;28;20032;-65
2023/08/28 04:58:11;;;;;;;49.70;29.85;;;;;;;;;;5052824;28;20075;-61
2023/08/28 05:00:36;;;;;;;44.53;32.27;;;;;;;;;;5052845;28;20021;-60
2023/08/28 05:03:01;;;;;;;39.07;30.10;;;;;;;;;;5072447;28;20025;-61
2023/08/28 05:05:26;;;;;;;47.67;29.30;;;;;;;;;;5071002;28;20434;-61
2023/08/28 05:07:52;;;;;;;49.67;31.17;;;;;;;;;;5072793;28;20407;-61
2023/08/28 05:10:17;;;;;;;39.95;28.50;;;;;;;;;;5072696;28;20422;-60
2023/08/28 05:12:42;;;;;;;43.40;31.10;;;;;;;;;;5069656;28;20029;-61
2023/08/28 05:15:07;;;;;;;37.33;28.97;;;;;;;;;;5072994;28;20093;-60
2023/08/28 05:17:32;;;;;;;46.22;31.48;;;;;;;;;;5070279;28;21012;-60
2023/08/28 05:19:57;;;;;;;39.17;27.70;;;;;;;;;;5072532;28;20039;-60
2023/08/28 05:22:23;;;;;;;43.22;31.02;;;;;;;;;;5070658;28;20553;-61
2023/08/28 05:24:48;;;;;;;40.63;30.63;;;;;;;;;;5071908;28;20020;-61
2023/08/28 05:27:13;;;;;;;37.47;28.83;;;;;;;;;;5070902;28;20037;-61
2023/08/28 05:29:38;;;;;;;40.73;32.40;;;;;;;;;;5070740;28;20542;-60
2023/08/28 05:32:04;;;;;;;39.92;29.65;;;;;;;;;;5070141;28;20090;-61
2023/08/28 05:34:29;;;;;;;41.22;29.88;;;;;;;;;;5071922;28;20062;-60
2023/08/28 05:36:54;;;;;;;64.97;31.27;;;;;;;;;;5071002;28;20031;-61
2023/08/28 05:39:19;;;;;;;54.10;35.90;;;;;;;;;;5071385;28;20048;-61
2023/08/28 05:41:44;;;;;;;47.00;33.47;;;;;;;;;;5070289;28;20527;-60
2023/08/28 05:44:10;;;;;;;49.97;34.65;;;;;;;;;;5071790;28;20324;-61
2023/08/28 05:46:35;;;;;;;47.03;35.00;;;;;;;;;;5067681;28;20149;-60
2023/08/28 05:49:00;;;;;;;55.47;37.80;;;;;;;;;;5072154;28;20418;-61
2023/08/28 05:51:25;;;;;;;55.20;38.47;;;;;;;;;;5070276;28;20056;-61
2023/08/28 05:53:50;;;;;;;52.30;38.30;;;;;;;;;;5071454;28;20495;-60
2023/08/28 05:56:16;;;;;;;55.87;41.23;;;;;;;;;;5067367;28;20029;-61
2023/08/28 05:58:41;;;;;;;55.38;42.22;;;;;;;;;;5050573;28;20454;-61
2023/08/28 06:01:06;;;;;;;57.23;41.67;;;;;;;;;;5056138;28;20056;-61
2023/08/28 06:03:31;;;;;;;54.10;41.73;;;;;;;;;;5061220;28;20013;-61
2023/08/28 06:05:56;;;;;;;51.45;40.22;;;;;;;;;;5049501;28;20025;-61
2023/08/28 06:08:21;;;;;;;57.10;42.30;;;;;;;;;;5050802;28;20016;-61
2023/08/28 06:10:47;;;;;;;54.97;43.63;;;;;;;;;;5049899;28;20033;-63
2023/08/28 06:13:12;;;;;;;55.10;42.20;;;;;;;;;;5050005;28;20416;-61
2023/08/28 06:15:37;;;;;;;59.13;42.93;;;;;;;;;;5058730;28;20107;-61
2023/08/28 06:18:04;;;;;;;61.45;41.63;;;;;;;;;;5071041;28;20360;-59
2023/08/28 06:20:29;;;;;;;62.10;44.90;;;;;;;;;;5069537;28;20100;-61
2023/08/28 06:22:55;;;;;;;54.60;41.97;;;;;;;;;;5071025;28;20432;-60
2023/08/28 06:25:20;;;;;;;56.17;40.07;;;;;;;;;;5069191;28;20043;-58
2023/08/28 06:27:46;;;;;;;49.70;41.23;;;;;;;;;;5071234;28;20423;-61
2023/08/28 06:30:11;;;;;;;49.07;39.93;;;;;;;;;;5070830;28;20430;-60
2023/08/28 06:32:36;;;;;;;44.38;34.95;;;;;;;;;;5068834;28;20451;-61
2023/08/28 06:35:01;;;;;;;41.67;35.07;;;;;;;;;;5071064;28;20020;-61
2023/08/28 06:37:27;;;;;;;45.92;37.35;;;;;;;;;;5068458;28;20462;-61
2023/08/28 06:39:52;;;;;;;36.80;32.75;;;;;;;;;;5068524;28;20036;-61
2023/08/28 06:42:17;;;;;;;39.50;34.42;;;;;;;;;;5052785;28;20437;-61
2023/08/28 06:44:43;;;;;;;36.88;32.35;;;;;;;;;;5050620;28;20013;-60
2023/08/28 06:47:09;;;;;;;37.50;29.42;;;;;;;;;;5064046;28;20045;-61
2023/08/28 06:49:34;;;;;;;38.43;31.20;;;;;;;;;;5070644;28;20100;-60
2023/08/28 06:51:59;;;;;;;28.87;25.70;;;;;;;;;;5055198;28;20025;-60
2023/08/28 06:54:24;;;;;;;31.67;27.87;;;;;;;;;;5049973;28;20059;-60
2023/08/28 06:56:50;;;;;;;25.58;22.27;;;;;;;;;;5049114;28;20514;-60
2023/08/28 06:59:15;;;;;;;25.05;22.42;;;;;;;;;;5050569;28;20053;-60
2023/08/28 07:01:41;;;;;;;26.13;22.88;;;;;;;;;;5048739;28;20033;-60
2023/08/28 07:04:06;;;;;;;21.70;19.40;;;;;;;;;;5050398;28;20033;-60
2023/08/28 07:06:32;;;;;;;22.25;20.17;;;;;;;;;;5048583;28;20474;-60
2023/08/28 07:08:57;;;;;;;31.53;19.87;;;;;;;;;;5050030;28;20017;-60
2023/08/28 07:11:22;;;;;;;26.05;18.50;;;;;;;;;;5048842;28;20373;-60
2023/08/28 07:13:49;;;;;;;19.50;17.63;;;;;;;;;;5050368;28;20104;-60
2023/08/28 07:16:14;;;;;;;20.10;17.67;;;;;;;;;;5048588;28;20048;-62
2023/08/28 07:18:39;;;;;;;17.53;15.80;;;;;;;;;;5050057;28;20021;-60
2023/08/28 07:21:05;;;;;;;17.50;15.15;;;;;;;;;;5048830;28;20057;-60
2023/08/28 07:23:30;;;;;;;15.52;13.73;;;;;;;;;;5049715;28;20017;-60
2023/08/28 07:25:56;;;;;;;20.37;15.77;;;;;;;;;;5080900;28;20033;-60
2023/08/28 07:28:21;;;;;;;14.30;12.88;;;;;;;;;;5049997;28;20476;-60
2023/08/28 07:30:47;;;;;;;13.10;11.67;;;;;;;;;;5048490;28;20033;-60
2023/08/28 07:33:12;;;;;;;15.15;13.07;;;;;;;;;;5050284;28;20025;-60
2023/08/28 07:35:37;;;;;;;14.43;11.82;;;;;;;;;;5048561;28;20013;-61
2023/08/28 07:38:03;;;;;;;10.93;9.60;;;;;;;;;;5049721;28;20045;-60
2023/08/28 07:40:29;;;;;;;12.15;10.90;;;;;;;;;;5048682;28;20558;-60
2023/08/28 07:42:54;;;;;;;9.63;8.80;;;;;;;;;;5050170;28;20500;-61
2023/08/28 07:45:19;;;;;;;10.15;9.15;;;;;;;;;;5049366;28;20423;-60
2023/08/28 07:47:44;;;;;;;11.43;9.95;;;;;;;;;;5048478;28;20029;-60
2023/08/28 07:50:09;;;;;;;10.23;9.17;;;;;;;;;;5048616;28;20066;-60
2023/08/28 07:52:34;;;;;;;8.57;7.70;;;;;;;;;;5048114;28;20437;-60
2023/08/28 07:54:59;;;;;;;7.03;6.13;;;;;;;;;;5049955;28;20025;-61
2023/08/28 07:57:25;;;;;;;8.57;7.78;;;;;;;;;;5048413;28;20037;-61
2023/08/28 07:59:50;;;;;;;9.67;7.20;;;;;;;;;;5049692;28;20396;-61
2023/08/28 08:02:15;;;;;;;9.63;8.33;;;;;;;;;;5048399;28;21999;-61
2023/08/28 08:04:41;;;;;;;7.75;6.72;;;;;;;;;;5045021;28;20443;-60
2023/08/28 08:07:06;;;;;;;8.10;6.13;;;;;;;;;;5061616;28;20106;-62
2023/08/28 08:09:31;;;;;;;12.93;7.93;;;;;;;;;;5069555;28;20016;-60
2023/08/28 08:11:56;;;;;;;6.97;6.28;;;;;;;;;;5068328;28;20077;-61
2023/08/28 08:14:23;;;;;;;7.33;5.73;;;;;;;;;;5068264;28;20024;-60
2023/08/28 08:16:48;;;;;;;8.35;5.63;;;;;;;;;;5068573;28;20867;-60
2023/08/28 08:19:13;;;;;;;4.80;4.40;;;;;;;;;;5069872;28;20051;-60
2023/08/28 08:21:38;;;;;;;4.33;4.03;;;;;;;;;;5071693;28;20040;-61
2023/08/28 08:24:03;;;;;;;10.07;5.50;;;;;;;;;;5073107;28;20104;-60
2023/08/28 08:26:28;;;;;;;7.47;5.68;;;;;;;;;;5071724;28;20371;-60
2023/08/28 08:28:54;;;;;;;5.13;3.80;;;;;;;;;;5072972;28;20070;-60
2023/08/28 08:31:19;;;;;;;6.65;3.65;;;;;;;;;;5071649;28;20115;-61
2023/08/28 08:33:44;;;;;;;6.47;4.57;;;;;;;;;;5073215;28;20066;-61
2023/08/28 08:36:13;;;;;;;5.20;4.13;;;;;;;;;;5071959;28;20036;-60
2023/08/28 08:38:39;;;;;;;5.03;3.53;;;;;;;;;;5072643;28;20147;-61
2023/08/28 08:41:04;;;;;;;3.80;3.47;;;;;;;;;;5071749;28;20182;-60
2023/08/28 08:43:29;;;;;;;8.15;4.63;;;;;;;;;;5072835;28;20017;-61
2023/08/28 08:45:58;;;;;;;6.23;4.23;;;;;;;;;;5071136;28;20539;-61
2023/08/28 08:48:25;;;;;;;4.07;3.67;;;;;;;;;;5071397;28;20025;-61
2023/08/28 08:50:51;;;;;;;8.00;4.25;;;;;;;;;;5071852;28;20021;-61
2023/08/28 08:53:36;;;;;;;9.63;3.67;;;;;;;;;;5072582;28;20047;-60
2023/08/28 08:56:03;;;;;;;7.35;4.50;;;;;;;;;;5055966;28;20048;-60
2023/08/28 08:58:30;;;;;;;5.30;3.42;;;;;;;;;;5051598;28;20479;-61
2023/08/28 09:00:55;;;;;;;5.13;2.90;;;;;;;;;;5055883;28;20487;-61
2023/08/28 09:03:21;;;;;;;4.97;2.50;;;;;;;;;;5072367;28;20031;-61
2023/08/28 09:05:46;;;;;;;1.77;1.65;;;;;;;;;;5067508;28;20033;-60
2023/08/28 09:08:12;;;;;;;1.63;1.48;;;;;;;;;;5052465;28;20044;-60
2023/08/28 09:10:37;;;;;;;2.08;1.60;;;;;;;;;;5053244;28;20510;-60
2023/08/28 09:13:04;;;;;;;4.95;1.95;;;;;;;;;;5073039;28;20024;-61
2023/08/28 09:15:29;;;;;;;3.42;1.60;;;;;;;;;;5069840;28;20059;-60
2023/08/28 09:17:54;;;;;;;2.93;1.80;;;;;;;;;;5052545;28;20044;-61
2023/08/28 09:20:21;;;;;;;2.70;1.40;;;;;;;;;;5052160;28;20025;-61
2023/08/28 09:22:47;;;;;;;2.67;1.60;;;;;;;;;;5050575;28;20098;-61
2023/08/28 09:25:13;;;;;;;2.15;1.48;;;;;;;;;;5052461;28;20021;-61
2023/08/28 09:27:39;;;;;;;3.38;1.52;;;;;;;;;;5069371;28;20117;-61
2023/08/28 09:30:05;;;;;;;1.40;1.30;;;;;;;;;;5072028;28;20020;-61
2023/08/28 09:32:30;;;;;;;0.93;0.93;;;;;;;;;;5051332;28;20040;-61
2023/08/28 09:34:56;;;;;;;2.10;1.37;;;;;;;;;;5049195;28;20017;-61
2023/08/28 09:37:21;;;;;;;6.27;1.70;;;;;;;;;;5049204;28;20496;-60
2023/08/28 09:39:56;;;;;;;1.40;1.30;;;;;;;;;;5050812;28;20124;-61
2023/08/28 09:42:24;;;;;;;2.30;1.15;;;;;;;;;;5048789;28;20041;-61
2023/08/28 09:44:50;;;;;;;4.07;1.60;;;;;;;;;;5051482;28;20013;-61
2023/08/28 09:47:21;;;;;;;4.55;1.20;;;;;;;;;;5050451;28;20649;-61
2023/08/28 09:49:47;;;;;;;3.53;1.67;;;;;;;;;;5051892;28;20028;-61
2023/08/28 09:52:12;;;;;;;1.20;1.10;;;;;;;;;;5050179;28;20029;-61
2023/08/28 09:54:37;;;;;;;3.00;1.40;;;;;;;;;;5052015;28;20361;-61
2023/08/28 09:57:13;;;;;;;2.97;1.50;;;;;;;;;;5050187;28;20447;-61
2023/08/28 09:59:38;;;;;;;2.40;1.45;;;;;;;;;;5051067;28;20070;-61
2023/08/28 10:02:04;;;;;;;5.40;1.53;;;;;;;;;;5050229;28;20476;-61
2023/08/28 10:04:32;;;;;;;2.47;1.33;;;;;;;;;;5051531;28;20036;-61
2023/08/28 10:06:58;;;;;;;2.45;1.25;;;;;;;;;;5049624;28;20112;-61
2023/08/28 10:09:24;;;;;;;4.25;2.03;;;;;;;;;;5055884;28;20159;-61
2023/08/28 10:11:50;;;;;;;2.15;1.95;;;;;;;;;;5068513;28;20063;-61
2023/08/28 10:14:16;;;;;;;1.83;1.48;;;;;;;;;;5070309;28;20530;-61
2023/08/28 10:16:44;;;;;;;1.63;1.10;;;;;;;;;;5063773;28;20513;-61
2023/08/28 10:19:13;;;;;;;1.30;0.97;;;;;;;;;;5068950;28;20050;-60
2023/08/28 10:21:39;;;;;;;4.82;1.63;;;;;;;;;;5059758;28;20478;-61
2023/08/28 10:24:05;;;;;;;2.10;1.40;;;;;;;;;;5070430;28;20024;-61
2023/08/28 10:26:30;;;;;;;2.17;1.10;;;;;;;;;;5069567;28;20078;-61
2023/08/28 10:28:56;;;;;;;1.08;0.90;;;;;;;;;;5069501;28;20024;-61
2023/08/28 10:31:21;;;;;;;1.30;1.02;;;;;;;;;;5065253;28;20067;-61
2023/08/28 10:33:47;;;;;;;0.95;0.77;;;;;;;;;;5070959;28;20021;-61
2023/08/28 10:36:13;;;;;;;1.63;1.02;;;;;;;;;;5069389;28;20033;-61
2023/08/28 10:38:38;;;;;;;2.40;1.33;;;;;;;;;;5070814;28;20060;-61
2023/08/28 10:41:03;;;;;;;4.57;1.13;;;;;;;;;;5069554;28;20395;-61
2023/08/28 10:43:29;;;;;;;2.55;1.73;;;;;;;;;;5070065;28;20070;-63
2023/08/28 10:45:56;;;;;;;3.35;1.30;;;;;;;;;;5069242;28;20111;-61
2023/08/28 10:48:21;;;;;;;2.50;1.25;;;;;;;;;;5070721;28;20025;-61
2023/08/28 10:50:46;;;;;;;5.60;1.80;;;;;;;;;;5069273;28;20032;-61
2023/08/28 10:53:15;;;;;;;2.25;0.90;;;;;;;;;;5070832;28;20419;-61
2023/08/28 10:55:50;;;;;;;2.25;2.05;;;;;;;;;;5069219;28;20027;-60
2023/08/28 10:58:15;;;;;;;1.33;0.90;;;;;;;;;;5070108;28;20058;-61
2023/08/28 11:00:40;;;;;;;2.78;1.17;;;;;;;;;;5069157;28;20012;-60
2023/08/28 11:03:10;;;;;;;0.67;0.67;;;;;;;;;;5070522;28;20391;-61
2023/08/28 11:05:39;;;;;;;1.02;0.90;;;;;;;;;;5068650;28;20013;-60
2023/08/28 11:08:06;;;;;;;1.23;1.10;;;;;;;;;;5070671;28;20074;-61
2023/08/28 11:10:31;;;;;;;1.15;1.00;;;;;;;;;;5068735;28;20108;-60
2023/08/28 11:13:01;;;;;;;1.60;1.50;;;;;;;;;;5070344;28;20107;-61
2023/08/28 11:15:27;;;;;;;0.98;0.80;;;;;;;;;;5069129;28;20413;-60
2023/08/28 11:18:11;;;;;;;1.42;1.05;;;;;;;;;;5070310;28;20025;-61
2023/08/28 11:20:37;;;;;;;9.35;1.65;;;;;;;;;;5068144;28;20024;-60
2023/08/28 11:23:02;;;;;;;1.20;1.10;;;;;;;;;;5070386;28;20017;-61
2023/08/28 11:25:39;;;;;;;1.63;0.95;;;;;;;;;;5067410;28;20025;-61
2023/08/28 11:28:04;;;;;;;2.15;0.98;;;;;;;;;;5069896;28;20043;-61
2023/08/28 11:30:29;;;;;;;0.98;0.82;;;;;;;;;;5068651;28;20405;-60
2023/08/28 11:32:55;;;;;;;3.17;2.27;;;;;;;;;;5070318;28;20091;-61
2023/08/28 11:35:21;;;;;;;2.28;1.17;;;;;;;;;;5069553;28;20030;-61
2023/08/28 11:37:47;;;;;;;2.28;1.35;;;;;;;;;;5068510;28;20571;-61
2023/08/28 11:40:16;;;;;;;1.65;1.00;;;;;;;;;;5070282;28;20028;-59
2023/08/28 11:42:41;;;;;;;3.28;1.00;;;;;;;;;;5066760;28;20036;-60
2023/08/28 11:45:07;;;;;;;1.20;1.10;;;;;;;;;;5068822;28;20381;-60
2023/08/28 11:47:33;;;;;;;1.80;1.20;;;;;;;;;;5068298;28;20036;-60
2023/08/28 11:49:59;;;;;;;1.17;0.90;;;;;;;;;;5069781;28;20348;-60
2023/08/28 11:52:24;;;;;;;1.48;0.90;;;;;;;;;;5068020;28;20029;-60
2023/08/28 11:54:50;;;;;;;1.58;1.00;;;;;;;;;;5071247;28;20020;-60
2023/08/28 11:57:19;;;;;;;1.10;1.00;;;;;;;;;;5071969;28;20075;-60
2023/08/28 11:59:44;;;;;;;0.80;0.80;;;;;;;;;;5071540;28;20463;-60
2023/08/28 12:02:13;;;;;;;1.15;1.00;;;;;;;;;;5071832;28;20119;-61
2023/08/28 12:04:39;;;;;;;1.77;1.08;;;;;;;;;;5072876;28;20023;-62
2023/08/28 12:07:07;;;;;;;19.15;2.55;;;;;;;;;;5058408;28;20037;-60
2023/08/28 12:09:32;;;;;;;2.53;1.13;;;;;;;;;;5053095;28;20024;-60
2023/08/28 12:11:58;;;;;;;1.20;1.10;;;;;;;;;;5065113;28;20029;-60
2023/08/28 12:14:25;;;;;;;2.63;1.25;;;;;;;;;;5073502;28;20417;-60
2023/08/28 12:16:57;;;;;;;2.08;1.00;;;;;;;;;;5058795;28;20091;-61
2023/08/28 12:19:22;;;;;;;1.10;1.00;;;;;;;;;;5052953;28;20048;-60
2023/08/28 12:21:48;;;;;;;2.95;1.35;;;;;;;;;;5063937;28;20106;-60
2023/08/28 12:24:13;;;;;;;1.53;1.00;;;;;;;;;;5073407;28;20020;-60
2023/08/28 12:26:40;;;;;;;9.70;2.60;;;;;;;;;;5061036;28;20478;-61
2023/08/28 12:29:06;;;;;;;2.93;1.30;;;;;;;;;;5053584;28;20017;-60
2023/08/28 12:31:32;;;;;;;2.80;1.05;;;;;;;;;;5061256;28;20035;-60
2023/08/28 12:34:05;;;;;;;1.75;1.00;;;;;;;;;;5072909;28;20470;-61
2023/08/28 12:36:36;;;;;;;2.85;1.00;;;;;;;;;;5062306;28;20168;-61
2023/08/28 12:39:03;;;;;;;1.75;1.33;;;;;;;;;;5053076;28;20077;-60
2023/08/28 12:41:32;;;;;;;3.63;0.93;;;;;;;;;;5060447;28;20090;-60
2023/08/28 12:43:57;;;;;;;1.98;1.33;;;;;;;;;;5073031;28;20120;-61
2023/08/28 12:46:22;;;;;;;1.10;1.00;;;;;;;;;;5061948;28;20108;-60
2023/08/28 12:48:47;;;;;;;4.77;1.50;;;;;;;;;;5052840;28;20067;-61
2023/08/28 12:51:13;;;;;;;1.40;1.20;;;;;;;;;;5058592;28;20477;-60
2023/08/28 12:53:38;;;;;;;3.40;1.60;;;;;;;;;;5072791;28;20426;-60
2023/08/28 12:56:03;;;;;;;0.97;0.97;;;;;;;;;;5071179;28;20504;-60
2023/08/28 12:58:28;;;;;;;2.77;1.50;;;;;;;;;;5072787;28;20425;-61
2023/08/28 13:00:53;;;;;;;1.10;1.03;;;;;;;;;;5067546;28;20036;-61
2023/08/28 13:03:18;;;;;;;4.43;1.23;;;;;;;;;;5052593;28;20211;-60
2023/08/28 13:05:44;;;;;;;2.93;1.17;;;;;;;;;;5053339;28;20399;-60
2023/08/28 13:08:09;;;;;;;0.90;0.90;;;;;;;;;;5072604;28;20088;-60
2023/08/28 13:10:35;;;;;;;0.97;0.97;;;;;;;;;;5068442;28;20043;-59
2023/08/28 13:13:00;;;;;;;3.45;1.30;;;;;;;;;;5053042;28;20436;-60
2023/08/28 13:15:25;;;;;;;1.10;1.10;;;;;;;;;;5049122;28;20028;-59
2023/08/28 13:17:50;;;;;;;2.38;1.17;;;;;;;;;;5052353;28;20937;-60
2023/08/28 13:20:17;;;;;;;2.70;1.38;;;;;;;;;;5052219;28;20033;-60
2023/08/28 13:22:42;;;;;;;4.68;1.23;;;;;;;;;;5050485;28;20119;-60
2023/08/28 13:25:08;;;;;;;1.57;1.30;;;;;;;;;;5052042;28;20128;-60
2023/08/28 13:27:33;;;;;;;1.17;1.08;;;;;;;;;;5050547;28;20514;-60
2023/08/28 13:29:59;;;;;;;2.87;2.33;;;;;;;;;;5052274;28;20494;-60
2023/08/28 13:32:24;;;;;;;5.55;1.02;;;;;;;;;;5050006;28;20083;-60
2023/08/28 13:34:49;;;;;;;1.20;1.20;;;;;;;;;;5052358;28;20013;-60
2023/08/28 13:37:14;;;;;;;1.65;1.20;;;;;;;;;;5050502;28;20395;-59
2023/08/28 13:39:40;;;;;;;1.90;1.80;;;;;;;;;;5051722;28;20025;-60
2023/08/28 13:42:05;;;;;;;4.18;0.88;;;;;;;;;;5050751;28;20408;-60
2023/08/28 13:44:31;;;;;;;1.60;1.48;;;;;;;;;;5050330;28;20036;-60
2023/08/28 13:46:56;;;;;;;1.45;1.20;;;;;;;;;;5050621;28;20053;-60
2023/08/28 13:49:21;;;;;;;2.10;1.30;;;;;;;;;;5051560;28;20055;-60
2023/08/28 13:51:49;;;;;;;7.57;1.40;;;;;;;;;;5050472;28;20033;-60
2023/08/28 13:54:15;;;;;;;1.05;0.93;;;;;;;;;;5052104;28;20024;-60
2023/08/28 13:56:40;;;;;;;1.30;1.20;;;;;;;;;;5050021;28;20124;-60
2023/08/28 13:59:05;;;;;;;1.57;1.37;;;;;;;;;;5051808;28;20029;-60
2023/08/28 14:01:30;;;;;;;4.78;1.88;;;;;;;;;;5050151;28;20447;-60
2023/08/28 14:03:56;;;;;;;1.50;1.40;;;;;;;;;;5051348;28;20028;-60
2023/08/28 14:06:21;;;;;;;3.08;1.83;;;;;;;;;;5049821;28;20124;-60
2023/08/28 14:08:47;;;;;;;2.47;1.10;;;;;;;;;;5051679;28;20026;-60
2023/08/28 14:11:12;;;;;;;1.70;1.60;;;;;;;;;;5049698;28;20033;-59
2023/08/28 14:13:37;;;;;;;2.97;1.63;;;;;;;;;;5051369;28;20424;-59
2023/08/28 14:16:03;;;;;;;2.30;1.73;;;;;;;;;;5049991;28;20472;-59
2023/08/28 14:18:28;;;;;;;2.00;1.30;;;;;;;;;;5050378;28;20024;-59
2023/08/28 14:20:54;;;;;;;1.40;1.30;;;;;;;;;;5049967;28;20033;-59